sensor_id;sensor_type;location;lat;lon;timestamp;pressure;altitude;pressure_sealevel;temperature;humidity
6393;BME280;3229;42.674;23.282;2023-02-02T00:01:11;94672.59;;;9.63;49.92
6393;BME280;3229;42.674;23.282;2023-02-02T00:03:38;94675.13;;;9.63;50.00
6393;BME280;3229;42.674;23.282;2023-02-02T00:06:05;94677.69;;;9.63;49.97
6393;BME280;3229;42.674;23.282;2023-02-02T00:08:32;94675.13;;;9.63;50.00
6393;BME280;3229;42.674;23.282;2023-02-02T00:11:01;94669.88;;;9.65;49.89
6393;BME280;3229;42.674;23.282;2023-02-02T00:13:28;94573.34;;;9.00;49.87
6393;BME280;3229;42.674;23.282;2023-02-02T00:15:55;94670.84;;;9.64;49.76
6393;BME280;3229;42.674;23.282;2023-02-02T00:18:22;94666.63;;;9.63;50.32
6393;BME280;3229;42.674;23.282;2023-02-02T00:20:48;94666.63;;;9.63;50.02
6393;BME280;3229;42.674;23.282;2023-02-02T00:23:15;94669.19;;;9.63;49.92
6393;BME280;3229;42.674;23.282;2023-02-02T00:25:42;94670.13;;;9.62;49.98
6393;BME280;3229;42.674;23.282;2023-02-02T00:28:10;94676.84;;;9.63;49.86
6393;BME280;3229;42.674;23.282;2023-02-02T00:30:37;94675.25;;;9.62;49.75
6393;BME280;3229;42.674;23.282;2023-02-02T00:33:04;94678.88;;;9.59;49.88
6393;BME280;3229;42.674;23.282;2023-02-02T00:35:31;94666.63;;;9.53;49.88
6393;BME280;3229;42.674;23.282;2023-02-02T00:37:57;94687.22;;;9.61;50.00
6393;BME280;3229;42.674;23.282;2023-02-02T00:40:24;94687.22;;;9.61;49.83
6393;BME280;3229;42.674;23.282;2023-02-02T00:42:51;94688.97;;;9.61;49.83
6393;BME280;3229;42.674;23.282;2023-02-02T00:45:19;94677.13;;;9.60;50.03
6393;BME280;3229;42.674;23.282;2023-02-02T00:47:47;94682.34;;;9.58;49.79
6393;BME280;3229;42.674;23.282;2023-02-02T00:50:16;94678.34;;;9.55;49.99
6393;BME280;3229;42.674;23.282;2023-02-02T00:52:44;94687.59;;;9.57;49.82
6393;BME280;3229;42.674;23.282;2023-02-02T00:55:12;94683.44;;;9.55;49.93
6393;BME280;3229;42.674;23.282;2023-02-02T00:57:39;94685.19;;;9.55;50.00
6393;BME280;3229;42.674;23.282;2023-02-02T01:00:07;94683.44;;;9.55;50.04
6393;BME280;3229;42.674;23.282;2023-02-02T01:02:36;94672.69;;;9.52;50.08
6393;BME280;3229;42.674;23.282;2023-02-02T01:05:03;94667.59;;;9.52;50.24
6393;BME280;3229;42.674;23.282;2023-02-02T01:07:30;94670.00;;;9.53;49.95
6393;BME280;3229;42.674;23.282;2023-02-02T01:09:57;94630.06;;;9.33;50.27
6393;BME280;3229;42.674;23.282;2023-02-02T01:12:24;94656.56;;;9.51;50.46
6393;BME280;3229;42.674;23.282;2023-02-02T01:14:50;94650.78;;;9.49;50.19
6393;BME280;3229;42.674;23.282;2023-02-02T01:17:17;94651.72;;;9.48;50.35
6393;BME280;3229;42.674;23.282;2023-02-02T01:19:46;94648.63;;;9.45;50.49
6393;BME280;3229;42.674;23.282;2023-02-02T01:22:12;94643.50;;;9.45;50.48
6393;BME280;3229;42.674;23.282;2023-02-02T01:24:39;94648.75;;;9.43;50.43
6393;BME280;3229;42.674;23.282;2023-02-02T01:27:06;94651.44;;;9.42;50.54
6393;BME280;3229;42.674;23.282;2023-02-02T01:29:33;94639.09;;;9.37;50.53
6393;BME280;3229;42.674;23.282;2023-02-02T01:31:59;94644.84;;;9.39;50.57
6393;BME280;3229;42.674;23.282;2023-02-02T01:34:26;94611.09;;;9.16;50.41
6393;BME280;3229;42.674;23.282;2023-02-02T01:36:55;94642.69;;;9.35;50.56
6393;BME280;3229;42.674;23.282;2023-02-02T01:39:22;94641.19;;;9.32;50.80
6393;BME280;3229;42.674;23.282;2023-02-02T01:41:48;94641.34;;;9.30;50.64
6393;BME280;3229;42.674;23.282;2023-02-02T01:47:33;94626.28;;;9.18;50.84
6393;BME280;3229;42.674;23.282;2023-02-02T01:50:02;94632.97;;;9.19;50.81
6393;BME280;3229;42.674;23.282;2023-02-02T01:52:31;94631.13;;;9.21;50.89
6393;BME280;3229;42.674;23.282;2023-02-02T01:55:03;94621.97;;;9.18;50.92
6393;BME280;3229;42.674;23.282;2023-02-02T01:57:36;94620.50;;;9.16;50.86
6393;BME280;3229;42.674;23.282;2023-02-02T02:00:07;94626.66;;;9.13;51.12
6393;BME280;3229;42.674;23.282;2023-02-02T02:02:35;94623.56;;;9.10;51.14
6393;BME280;3229;42.674;23.282;2023-02-02T02:05:05;94619.66;;;9.05;51.00
6393;BME280;3229;42.674;23.282;2023-02-02T02:07:34;94620.75;;;9.03;51.18
6393;BME280;3229;42.674;23.282;2023-02-02T02:10:01;94619.25;;;9.00;51.11
6393;BME280;3229;42.674;23.282;2023-02-02T02:12:27;94617.75;;;8.98;51.36
6393;BME280;3229;42.674;23.282;2023-02-02T02:14:54;94623.94;;;8.95;51.44
6393;BME280;3229;42.674;23.282;2023-02-02T02:18:05;94589.34;;;8.72;51.32
6393;BME280;3229;42.674;23.282;2023-02-02T02:33:26;94617.94;;;8.75;51.80
6393;BME280;3229;42.674;23.282;2023-02-02T02:36:01;94618.88;;;8.74;52.18
6393;BME280;3229;42.674;23.282;2023-02-02T02:38:36;94618.09;;;8.74;52.13
6393;BME280;3229;42.674;23.282;2023-02-02T02:41:09;94609.75;;;8.72;52.08
6393;BME280;3229;42.674;23.282;2023-02-02T02:43:40;94627.72;;;8.70;52.02
6393;BME280;3229;42.674;23.282;2023-02-02T02:46:08;94629.47;;;8.70;52.00
6393;BME280;3229;42.674;23.282;2023-02-02T02:48:38;94474.28;;;7.75;52.13
6393;BME280;3229;42.674;23.282;2023-02-02T02:51:06;94616.97;;;8.67;52.28
6393;BME280;3229;42.674;23.282;2023-02-02T02:53:33;94612.81;;;8.66;52.13
6393;BME280;3229;42.674;23.282;2023-02-02T02:56:06;94622.34;;;8.64;52.37
6393;BME280;3229;42.674;23.282;2023-02-02T02:58:44;94620.72;;;8.63;52.21
6393;BME280;3229;42.674;23.282;2023-02-02T03:01:19;94623.25;;;8.63;52.44
6393;BME280;3229;42.674;23.282;2023-02-02T03:04:02;94614.94;;;8.61;52.31
6393;BME280;3229;42.674;23.282;2023-02-02T03:06:36;94614.16;;;8.60;52.53
6393;BME280;3229;42.674;23.282;2023-02-02T03:09:09;94608.34;;;8.58;52.35
6393;BME280;3229;42.674;23.282;2023-02-02T03:11:38;94609.97;;;8.59;52.55
6393;BME280;3229;42.674;23.282;2023-02-02T03:14:05;94616.00;;;8.58;52.19
6393;BME280;3229;42.674;23.282;2023-02-02T03:16:34;94618.53;;;8.58;52.38
6393;BME280;3229;42.674;23.282;2023-02-02T03:19:03;94617.75;;;8.58;52.44
6393;BME280;3229;42.674;23.282;2023-02-02T03:21:31;94578.16;;;8.33;52.48
6393;BME280;3229;42.674;23.282;2023-02-02T03:23:58;94612.78;;;8.56;52.53
6393;BME280;3229;42.674;23.282;2023-02-02T03:26:25;94610.22;;;8.56;52.40
6393;BME280;3229;42.674;23.282;2023-02-02T03:28:54;94607.69;;;8.56;52.53
6393;BME280;3229;42.674;23.282;2023-02-02T03:31:22;94595.19;;;8.53;52.46
6393;BME280;3229;42.674;23.282;2023-02-02T03:33:51;94612.09;;;8.54;52.51
6393;BME280;3229;42.674;23.282;2023-02-02T03:36:19;94602.84;;;8.53;52.48
6393;BME280;3229;42.674;23.282;2023-02-02T03:38:46;94603.78;;;8.52;52.52
6393;BME280;3229;42.674;23.282;2023-02-02T03:41:13;94617.47;;;8.51;52.66
6393;BME280;3229;42.674;23.282;2023-02-02T03:43:40;94601.47;;;8.49;52.55
6393;BME280;3229;42.674;23.282;2023-02-02T03:46:07;94599.06;;;8.47;52.57
6393;BME280;3229;42.674;23.282;2023-02-02T03:48:35;94543.34;;;8.12;52.76
6393;BME280;3229;42.674;23.282;2023-02-02T03:51:05;94603.59;;;8.44;52.68
6393;BME280;3229;42.674;23.282;2023-02-02T03:53:33;94607.09;;;8.43;52.73
6393;BME280;3229;42.674;23.282;2023-02-02T03:56:00;94518.16;;;7.88;52.62
6393;BME280;3229;42.674;23.282;2023-02-02T03:58:27;94613.47;;;8.37;52.86
6393;BME280;3229;42.674;23.282;2023-02-02T04:00:58;94610.81;;;8.39;52.81
6393;BME280;3229;42.674;23.282;2023-02-02T04:03:25;94605.03;;;8.37;52.79
6393;BME280;3229;42.674;23.282;2023-02-02T04:05:52;94616.13;;;8.36;52.85
6393;BME280;3229;42.674;23.282;2023-02-02T04:08:18;94626.31;;;8.36;52.66
6393;BME280;3229;42.674;23.282;2023-02-02T04:10:46;94628.06;;;8.35;52.77
6393;BME280;3229;42.674;23.282;2023-02-02T04:13:13;94624.72;;;8.35;52.83
6393;BME280;3229;42.674;23.282;2023-02-02T04:15:40;94629.13;;;8.33;52.79
6393;BME280;3229;42.674;23.282;2023-02-02T04:18:07;94619.06;;;8.31;52.80
6393;BME280;3229;42.674;23.282;2023-02-02T04:20:34;94634.34;;;8.31;52.72
6393;BME280;3229;42.674;23.282;2023-02-02T04:23:00;94636.88;;;8.31;52.74
6393;BME280;3229;42.674;23.282;2023-02-02T04:25:27;94633.69;;;8.29;52.93
6393;BME280;3229;42.674;23.282;2023-02-02T04:27:55;94626.84;;;8.29;52.85
6393;BME280;3229;42.674;23.282;2023-02-02T04:30:22;94631.13;;;8.29;52.73
6393;BME280;3229;42.674;23.282;2023-02-02T04:32:50;94635.38;;;8.28;52.94
6393;BME280;3229;42.674;23.282;2023-02-02T04:35:16;94615.28;;;8.25;52.82
6393;BME280;3229;42.674;23.282;2023-02-02T04:37:43;94611.78;;;8.26;52.73
6393;BME280;3229;42.674;23.282;2023-02-02T04:40:11;94615.84;;;8.29;52.72
6393;BME280;3229;42.674;23.282;2023-02-02T04:42:38;94626.94;;;8.28;52.83
6393;BME280;3229;42.674;23.282;2023-02-02T04:45:07;94640.47;;;8.28;52.86
6393;BME280;3229;42.674;23.282;2023-02-02T04:47:34;94632.97;;;8.27;52.85
6393;BME280;3229;42.674;23.282;2023-02-02T04:50:01;94637.25;;;8.26;52.81
6393;BME280;3229;42.674;23.282;2023-02-02T04:52:28;94636.47;;;8.26;52.77
6393;BME280;3229;42.674;23.282;2023-02-02T04:54:55;94636.47;;;8.26;52.75
6393;BME280;3229;42.674;23.282;2023-02-02T04:57:21;94630.56;;;8.25;52.90
6393;BME280;3229;42.674;23.282;2023-02-02T04:59:48;94635.66;;;8.25;52.82
6393;BME280;3229;42.674;23.282;2023-02-02T05:02:16;94638.31;;;8.24;52.77
6393;BME280;3229;42.674;23.282;2023-02-02T05:04:43;94643.53;;;8.22;52.86
6393;BME280;3229;42.674;23.282;2023-02-02T05:07:11;94633.50;;;8.21;52.96
6393;BME280;3229;42.674;23.282;2023-02-02T05:09:38;94636.28;;;8.18;52.76
6393;BME280;3229;42.674;23.282;2023-02-02T05:12:05;94641.38;;;8.18;52.72
6393;BME280;3229;42.674;23.282;2023-02-02T05:14:31;94638.03;;;8.17;52.88
6393;BME280;3229;42.674;23.282;2023-02-02T05:16:58;94646.59;;;8.16;52.65
6393;BME280;3229;42.674;23.282;2023-02-02T05:19:27;94640.66;;;8.16;52.81
6393;BME280;3229;42.674;23.282;2023-02-02T05:21:53;94634.78;;;8.15;52.81
6393;BME280;3229;42.674;23.282;2023-02-02T05:24:20;94621.22;;;8.15;52.83
6393;BME280;3229;42.674;23.282;2023-02-02T05:26:47;94628.88;;;8.15;52.81
6393;BME280;3229;42.674;23.282;2023-02-02T05:29:14;94620.44;;;8.14;52.75
6393;BME280;3229;42.674;23.282;2023-02-02T05:31:40;94618.81;;;8.13;52.66
6393;BME280;3229;42.674;23.282;2023-02-02T05:34:07;94631.56;;;8.13;52.83
6393;BME280;3229;42.674;23.282;2023-02-02T05:36:37;94630.75;;;8.13;52.77
6393;BME280;3229;42.674;23.282;2023-02-02T05:39:03;94637.47;;;8.14;52.70
6393;BME280;3229;42.674;23.282;2023-02-02T05:41:30;94630.63;;;8.14;52.61
6393;BME280;3229;42.674;23.282;2023-02-02T05:43:58;94644.97;;;8.15;52.67
6393;BME280;3229;42.674;23.282;2023-02-02T05:46:24;94649.16;;;8.16;52.45
6393;BME280;3229;42.674;23.282;2023-02-02T05:48:51;94636.41;;;8.16;52.57
6393;BME280;3229;42.674;23.282;2023-02-02T05:51:21;94638.03;;;8.17;52.66
6393;BME280;3229;42.674;23.282;2023-02-02T05:53:50;94640.31;;;8.20;52.28
6393;BME280;3229;42.674;23.282;2023-02-02T05:56:17;94638.31;;;8.24;52.27
6393;BME280;3229;42.674;23.282;2023-02-02T05:58:44;94636.47;;;8.26;52.32
6393;BME280;3229;42.674;23.282;2023-02-02T06:01:12;94641.44;;;8.27;52.23
6393;BME280;3229;42.674;23.282;2023-02-02T06:03:39;94646.84;;;8.34;52.13
6393;BME280;3229;42.674;23.282;2023-02-02T06:06:06;94645.56;;;8.40;52.20
6393;BME280;3229;42.674;23.282;2023-02-02T06:08:33;94650.28;;;8.44;52.06
6393;BME280;3229;42.674;23.282;2023-02-02T06:11:07;94605.66;;;8.29;51.87
6393;BME280;3229;42.674;23.282;2023-02-02T06:13:34;94651.13;;;8.54;51.85
6393;BME280;3229;42.674;23.282;2023-02-02T06:16:01;94657.34;;;8.62;51.70
6393;BME280;3229;42.674;23.282;2023-02-02T06:18:28;94652.56;;;8.68;51.63
6393;BME280;3229;42.674;23.282;2023-02-02T06:20:58;94656.09;;;8.77;51.36
6393;BME280;3229;42.674;23.282;2023-02-02T06:23:25;94662.97;;;8.86;51.34
6393;BME280;3229;42.674;23.282;2023-02-02T06:25:52;94648.16;;;8.80;51.41
6393;BME280;3229;42.674;23.282;2023-02-02T06:28:20;94673.63;;;9.01;51.13
6393;BME280;3229;42.674;23.282;2023-02-02T06:30:47;94666.94;;;9.10;51.11
6393;BME280;3229;42.674;23.282;2023-02-02T06:33:14;94677.03;;;9.21;51.03
6393;BME280;3229;42.674;23.282;2023-02-02T06:35:41;94676.94;;;9.32;50.95
6393;BME280;3229;42.674;23.282;2023-02-02T06:38:08;94655.84;;;9.30;50.75
6393;BME280;3229;42.674;23.282;2023-02-02T06:40:35;94678.03;;;9.49;50.86
6393;BME280;3229;42.674;23.282;2023-02-02T06:43:02;94679.41;;;9.53;50.59
6393;BME280;3229;42.674;23.282;2023-02-02T06:45:30;94686.41;;;9.61;50.45
6393;BME280;3229;42.674;23.282;2023-02-02T06:47:57;94678.50;;;9.64;50.52
6393;BME280;3229;42.674;23.282;2023-02-02T06:50:27;94673.78;;;9.69;50.47
6393;BME280;3229;42.674;23.282;2023-02-02T06:52:54;94670.69;;;9.65;50.56
6393;BME280;3229;42.674;23.282;2023-02-02T06:55:21;94689.38;;;9.75;50.45
6393;BME280;3229;42.674;23.282;2023-02-02T06:57:48;94694.22;;;9.78;50.29
6393;BME280;3229;42.674;23.282;2023-02-02T07:00:21;94696.38;;;9.83;50.40
6393;BME280;3229;42.674;23.282;2023-02-02T07:02:49;94691.16;;;9.85;50.01
6393;BME280;3229;42.674;23.282;2023-02-02T07:05:16;94700.44;;;9.86;50.14
6393;BME280;3229;42.674;23.282;2023-02-02T07:07:46;94705.00;;;9.92;50.08
6393;BME280;3229;42.674;23.282;2023-02-02T07:10:12;94702.19;;;9.95;49.59
6393;BME280;3229;42.674;23.282;2023-02-02T07:12:39;94693.44;;;9.97;50.10
6393;BME280;3229;42.674;23.282;2023-02-02T07:15:07;94700.03;;;10.00;49.84
6393;BME280;3229;42.674;23.282;2023-02-02T07:17:34;94697.59;;;10.08;49.90
6393;BME280;3229;42.674;23.282;2023-02-02T07:20:03;94697.88;;;10.15;49.70
6393;BME280;3229;42.674;23.282;2023-02-02T07:22:30;94707.03;;;10.17;49.78
6393;BME280;3229;42.674;23.282;2023-02-02T07:24:56;94703.41;;;10.20;49.71
6393;BME280;3229;42.674;23.282;2023-02-02T07:27:23;94706.63;;;10.22;49.74
6393;BME280;3229;42.674;23.282;2023-02-02T07:29:50;94715.88;;;10.23;49.43
6393;BME280;3229;42.674;23.282;2023-02-02T07:32:17;94704.75;;;10.24;49.72
6393;BME280;3229;42.674;23.282;2023-02-02T07:34:43;94685.91;;;10.15;49.99
6393;BME280;3229;42.674;23.282;2023-02-02T07:37:11;94706.09;;;10.38;49.49
6393;BME280;3229;42.674;23.282;2023-02-02T07:39:38;94706.38;;;10.54;49.34
6393;BME280;3229;42.674;23.282;2023-02-02T07:42:09;94709.66;;;10.74;48.99
6393;BME280;3229;42.674;23.282;2023-02-02T07:44:36;94705.34;;;10.84;48.96
6393;BME280;3229;42.674;23.282;2023-02-02T07:47:03;94693.97;;;10.96;49.25
6393;BME280;3229;42.674;23.282;2023-02-02T07:49:30;94689.66;;;11.07;48.87
6393;BME280;3229;42.674;23.282;2023-02-02T07:51:57;94697.53;;;11.23;48.88
6393;BME280;3229;42.674;23.282;2023-02-02T07:54:25;94681.69;;;11.37;48.67
6393;BME280;3229;42.674;23.282;2023-02-02T07:56:52;94672.28;;;11.55;48.42
6393;BME280;3229;42.674;23.282;2023-02-02T07:59:18;94670.34;;;11.67;48.50
6393;BME280;3229;42.674;23.282;2023-02-02T08:01:45;94622.75;;;11.47;48.30
6393;BME280;3229;42.674;23.282;2023-02-02T08:04:12;94667.09;;;12.11;47.94
6393;BME280;3229;42.674;23.282;2023-02-02T08:06:40;94638.69;;;12.48;47.72
6393;BME280;3229;42.674;23.282;2023-02-02T08:09:08;94672.97;;;13.33;47.65
6393;BME280;3229;42.674;23.282;2023-02-02T08:11:37;94665.44;;;13.98;47.25
6393;BME280;3229;42.674;23.282;2023-02-02T08:14:04;94670.28;;;14.42;46.83
6393;BME280;3229;42.674;23.282;2023-02-02T08:16:31;94668.69;;;14.74;46.51
6393;BME280;3229;42.674;23.282;2023-02-02T08:18:59;94667.78;;;15.06;45.77
6393;BME280;3229;42.674;23.282;2023-02-02T08:21:26;94654.22;;;15.20;45.60
6393;BME280;3229;42.674;23.282;2023-02-02T08:23:53;94635.06;;;15.15;45.59
6393;BME280;3229;42.674;23.282;2023-02-02T08:26:22;94630.09;;;15.13;45.70
6393;BME280;3229;42.674;23.282;2023-02-02T08:28:53;94630.25;;;15.20;46.73
6393;BME280;3229;42.674;23.282;2023-02-02T08:31:22;94647.38;;;15.36;47.61
6393;BME280;3229;42.674;23.282;2023-02-02T08:33:50;94656.19;;;15.49;48.82
6393;BME280;3229;42.674;23.282;2023-02-02T08:36:20;94642.75;;;15.62;49.69
6393;BME280;3229;42.674;23.282;2023-02-02T08:38:48;94648.34;;;15.74;49.68
6393;BME280;3229;42.674;23.282;2023-02-02T08:41:17;94643.50;;;15.79;49.39
6393;BME280;3229;42.674;23.282;2023-02-02T08:43:44;94639.31;;;15.78;48.88
6393;BME280;3229;42.674;23.282;2023-02-02T08:46:13;94648.88;;;15.69;48.47
6393;BME280;3229;42.674;23.282;2023-02-02T08:48:40;94639.22;;;15.63;48.79
6393;BME280;3229;42.674;23.282;2023-02-02T08:51:09;94631.53;;;15.55;49.08
6393;BME280;3229;42.674;23.282;2023-02-02T08:53:36;94603.13;;;15.32;49.04
6393;BME280;3229;42.674;23.282;2023-02-02T08:56:05;94617.44;;;15.35;48.87
6393;BME280;3229;42.674;23.282;2023-02-02T08:58:32;94624.38;;;15.34;48.76
6393;BME280;3229;42.674;23.282;2023-02-02T09:01:03;94629.19;;;15.37;48.37
6393;BME280;3229;42.674;23.282;2023-02-02T09:03:32;94627.75;;;15.35;48.06
6393;BME280;3229;42.674;23.282;2023-02-02T09:06:03;94618.22;;;15.43;47.64
6393;BME280;3229;42.674;23.282;2023-02-02T09:08:30;94623.53;;;15.42;47.61
6393;BME280;3229;42.674;23.282;2023-02-02T09:11:02;94624.50;;;15.41;47.43
6393;BME280;3229;42.674;23.282;2023-02-02T09:13:29;94623.69;;;15.40;47.41
6393;BME280;3229;42.674;23.282;2023-02-02T09:15:58;94628.69;;;15.42;47.19
6393;BME280;3229;42.674;23.282;2023-02-02T09:18:25;94612.06;;;15.44;47.02
6393;BME280;3229;42.674;23.282;2023-02-02T09:20:53;94609.16;;;15.47;46.74
6393;BME280;3229;42.674;23.282;2023-02-02T09:23:20;94619.28;;;15.49;46.72
6393;BME280;3229;42.674;23.282;2023-02-02T09:25:47;94614.00;;;15.50;46.44
6393;BME280;3229;42.674;23.282;2023-02-02T09:28:14;94613.00;;;15.51;46.58
6393;BME280;3229;42.674;23.282;2023-02-02T09:30:40;94619.16;;;15.50;46.46
6393;BME280;3229;42.674;23.282;2023-02-02T09:33:07;94616.72;;;15.49;46.34
6393;BME280;3229;42.674;23.282;2023-02-02T09:35:34;94605.00;;;15.46;46.14
6393;BME280;3229;42.674;23.282;2023-02-02T09:38:02;94608.38;;;15.47;46.01
6393;BME280;3229;42.674;23.282;2023-02-02T09:40:31;94610.16;;;15.46;45.92
6393;BME280;3229;42.674;23.282;2023-02-02T09:43:05;94607.41;;;15.48;45.90
6393;BME280;3229;42.674;23.282;2023-02-02T09:45:38;94598.88;;;15.47;45.78
6393;BME280;3229;42.674;23.282;2023-02-02T09:48:19;94600.63;;;15.47;45.75
6393;BME280;3229;42.674;23.282;2023-02-02T09:50:51;94602.25;;;15.48;45.80
6393;BME280;3229;42.674;23.282;2023-02-02T09:53:31;94532.72;;;15.09;45.35
6393;BME280;3229;42.674;23.282;2023-02-02T09:56:05;94596.28;;;15.47;45.54
6393;BME280;3229;42.674;23.282;2023-02-02T09:58:40;94591.31;;;15.46;45.27
6393;BME280;3229;42.674;23.282;2023-02-02T10:01:11;94590.94;;;15.49;45.28
6393;BME280;3229;42.674;23.282;2023-02-02T10:03:42;94595.94;;;15.50;45.19
6393;BME280;3229;42.674;23.282;2023-02-02T10:06:20;94585.66;;;15.50;45.06
6393;BME280;3229;42.674;23.282;2023-02-02T10:08:54;94599.31;;;15.51;44.93
6393;BME280;3229;42.674;23.282;2023-02-02T10:11:32;94582.41;;;15.48;44.92
6393;BME280;3229;42.674;23.282;2023-02-02T10:14:05;94576.13;;;15.51;44.79
6393;BME280;3229;42.674;23.282;2023-02-02T10:16:34;94579.00;;;15.56;44.82
6393;BME280;3229;42.674;23.282;2023-02-02T10:19:05;94573.63;;;15.66;44.61
6393;BME280;3229;42.674;23.282;2023-02-02T10:21:38;94565.66;;;15.75;44.50
6393;BME280;3229;42.674;23.282;2023-02-02T10:24:14;94557.34;;;15.88;44.12
6393;BME280;3229;42.674;23.282;2023-02-02T10:26:45;94563.19;;;16.05;44.22
6393;BME280;3229;42.674;23.282;2023-02-02T10:29:15;94557.69;;;16.23;43.81
6393;BME280;3229;42.674;23.282;2023-02-02T10:31:49;94549.19;;;16.37;43.68
6393;BME280;3229;42.674;23.282;2023-02-02T10:34:25;94548.41;;;16.51;43.64
6393;BME280;3229;42.674;23.282;2023-02-02T10:37:23;94545.66;;;16.68;43.39
6393;BME280;3229;42.674;23.282;2023-02-02T10:40:04;94530.88;;;16.76;43.32
6393;BME280;3229;42.674;23.282;2023-02-02T10:42:40;94519.63;;;16.69;43.51
6393;BME280;3229;42.674;23.282;2023-02-02T10:45:28;94512.72;;;16.85;43.44
6393;BME280;3229;42.674;23.282;2023-02-02T10:47:55;94508.25;;;16.78;43.30
6393;BME280;3229;42.674;23.282;2023-02-02T10:50:22;94498.56;;;16.80;43.54
6393;BME280;3229;42.674;23.282;2023-02-02T10:52:53;94498.81;;;16.86;43.36
6393;BME280;3229;42.674;23.282;2023-02-02T10:55:27;94491.56;;;16.96;43.23
6393;BME280;3229;42.674;23.282;2023-02-02T10:58:03;94479.78;;;17.08;43.11
6393;BME280;3229;42.674;23.282;2023-02-02T11:00:37;94468.72;;;17.14;43.01
6393;BME280;3229;42.674;23.282;2023-02-02T11:03:07;94477.22;;;17.29;42.80
6393;BME280;3229;42.674;23.282;2023-02-02T11:05:35;94476.47;;;17.36;42.65
6393;BME280;3229;42.674;23.282;2023-02-02T11:08:32;94478.53;;;17.40;42.58
6393;BME280;3229;42.674;23.282;2023-02-02T11:11:09;94475.56;;;17.43;42.38
6393;BME280;3229;42.674;23.282;2023-02-02T11:13:41;94478.94;;;17.44;42.60
6393;BME280;3229;42.674;23.282;2023-02-02T11:16:21;94438.00;;;17.26;42.34
6393;BME280;3229;42.674;23.282;2023-02-02T11:18:48;94466.84;;;17.44;42.22
6393;BME280;3229;42.674;23.282;2023-02-02T11:21:21;94473.75;;;17.44;42.17
6393;BME280;3229;42.674;23.282;2023-02-02T11:23:53;94470.16;;;17.38;42.03
6393;BME280;3229;42.674;23.282;2023-02-02T11:26:23;94458.38;;;17.36;42.74
6393;BME280;3229;42.674;23.282;2023-02-02T11:28:51;94458.94;;;17.31;42.25
6393;BME280;3229;42.674;23.282;2023-02-02T11:31:32;94455.38;;;17.32;42.15
6393;BME280;3229;42.674;23.282;2023-02-02T11:34:15;94452.97;;;17.30;42.03
6393;BME280;3229;42.674;23.282;2023-02-02T11:37:00;94448.78;;;17.29;41.99
6393;BME280;3229;42.674;23.282;2023-02-02T11:39:27;94439.19;;;17.23;42.17
6393;BME280;3229;42.674;23.282;2023-02-02T11:42:00;94440.16;;;17.22;41.98
6393;BME280;3229;42.674;23.282;2023-02-02T11:44:28;94437.56;;;17.22;41.99
6393;BME280;3229;42.674;23.282;2023-02-02T11:46:57;94439.75;;;17.19;42.05
6393;BME280;3229;42.674;23.282;2023-02-02T11:49:25;94432.41;;;17.22;42.15
6393;BME280;3229;42.674;23.282;2023-02-02T11:52:00;94432.03;;;17.25;41.85
6393;BME280;3229;42.674;23.282;2023-02-02T11:54:30;94436.41;;;17.25;41.94
6393;BME280;3229;42.674;23.282;2023-02-02T11:57:01;94437.78;;;17.21;41.73
6393;BME280;3229;42.674;23.282;2023-02-02T11:59:32;94428.97;;;17.15;41.98
6393;BME280;3229;42.674;23.282;2023-02-02T12:02:21;94420.44;;;17.15;41.66
6393;BME280;3229;42.674;23.282;2023-02-02T12:04:50;94421.66;;;17.19;41.64
6393;BME280;3229;42.674;23.282;2023-02-02T12:07:18;94422.69;;;17.24;41.75
6393;BME280;3229;42.674;23.282;2023-02-02T12:09:47;94424.28;;;17.25;41.67
6393;BME280;3229;42.674;23.282;2023-02-02T12:12:25;94365.66;;;16.83;41.66
6393;BME280;3229;42.674;23.282;2023-02-02T12:15:02;94419.69;;;17.21;41.72
6393;BME280;3229;42.674;23.282;2023-02-02T12:17:36;94429.41;;;17.19;41.74
6393;BME280;3229;42.674;23.282;2023-02-02T12:20:28;94424.28;;;17.04;42.05
6393;BME280;3229;42.674;23.282;2023-02-02T12:26:14;94414.38;;;16.86;42.28
6393;BME280;3229;42.674;23.282;2023-02-02T12:29:13;94416.28;;;16.77;42.36
6393;BME280;3229;42.674;23.282;2023-02-02T12:31:52;94431.78;;;16.63;42.24
6393;BME280;3229;42.674;23.282;2023-02-02T12:34:31;94431.19;;;16.46;42.29
6393;BME280;3229;42.674;23.282;2023-02-02T12:37:07;94422.38;;;16.25;42.46
6393;BME280;3229;42.674;23.282;2023-02-02T12:39:46;94418.09;;;16.18;42.23
6393;BME280;3229;42.674;23.282;2023-02-02T12:42:31;94424.53;;;16.07;42.21
6393;BME280;3229;42.674;23.282;2023-02-02T12:45:17;94419.72;;;15.89;42.55
6393;BME280;3229;42.674;23.282;2023-02-02T12:47:57;94430.13;;;15.81;42.53
6393;BME280;3229;42.674;23.282;2023-02-02T12:50:32;94432.31;;;15.69;42.47
6393;BME280;3229;42.674;23.282;2023-02-02T12:53:15;94431.75;;;15.59;42.58
6393;BME280;3229;42.674;23.282;2023-02-02T12:55:51;94396.84;;;15.34;42.73
6393;BME280;3229;42.674;23.282;2023-02-02T12:58:27;94423.34;;;15.42;42.76
6393;BME280;3229;42.674;23.282;2023-02-02T13:01:14;94423.41;;;15.34;42.76
6393;BME280;3229;42.674;23.282;2023-02-02T13:03:57;94425.41;;;15.24;42.76
6393;BME280;3229;42.674;23.282;2023-02-02T13:06:48;94422.25;;;15.14;42.82
6393;BME280;3229;42.674;23.282;2023-02-02T13:09:23;94431.63;;;15.06;43.01
6393;BME280;3229;42.674;23.282;2023-02-02T13:11:55;94418.47;;;15.01;43.13
6393;BME280;3229;42.674;23.282;2023-02-02T13:14:29;94432.16;;;15.02;43.01
6393;BME280;3229;42.674;23.282;2023-02-02T13:17:00;94434.56;;;15.03;43.01
6393;BME280;3229;42.674;23.282;2023-02-02T13:19:33;94411.28;;;14.97;42.98
6393;BME280;3229;42.674;23.282;2023-02-02T13:22:03;94424.44;;;15.02;42.90
6393;BME280;3229;42.674;23.282;2023-02-02T13:24:35;94417.88;;;14.99;43.05
6393;BME280;3229;42.674;23.282;2023-02-02T13:27:05;94410.53;;;14.88;43.12
6393;BME280;3229;42.674;23.282;2023-02-02T13:29:37;94410.53;;;14.88;43.29
6393;BME280;3229;42.674;23.282;2023-02-02T13:32:13;94420.53;;;14.83;43.23
6393;BME280;3229;42.674;23.282;2023-02-02T13:34:45;94409.16;;;14.77;43.31
6393;BME280;3229;42.674;23.282;2023-02-02T13:37:17;94414.03;;;14.72;43.24
6393;BME280;3229;42.674;23.282;2023-02-02T13:39:53;94405.19;;;14.67;43.12
6393;BME280;3229;42.674;23.282;2023-02-02T13:42:27;94407.59;;;14.68;42.97
6393;BME280;3229;42.674;23.282;2023-02-02T13:44:59;94409.41;;;14.60;43.15
6393;BME280;3229;42.674;23.282;2023-02-02T13:47:34;94416.38;;;14.51;43.05
6393;BME280;3229;42.674;23.282;2023-02-02T13:50:08;94419.56;;;14.45;42.99
6393;BME280;3229;42.674;23.282;2023-02-02T13:52:52;94419.41;;;14.46;42.91